createdAt,value
2023-12-05T07:32:28.801Z,39.48
2023-12-05T07:33:30.024Z,37.54
2023-12-05T07:34:30.012Z,57.20
2023-12-05T07:35:30.045Z,48.02
2023-12-05T07:36:30.159Z,39.96
2023-12-05T07:37:30.265Z,35.45
2023-12-05T07:38:30.353Z,35.45
2023-12-05T07:39:30.417Z,37.22
2023-12-05T08:15:06.062Z,55.43
2023-12-05T08:16:07.316Z,45.12
2023-12-05T08:17:07.182Z,32.87
2023-12-05T08:18:07.365Z,35.29
2023-12-05T08:19:07.384Z,35.13
2023-12-05T08:20:07.434Z,48.34
2023-12-05T08:21:07.442Z,47.05
2023-12-05T08:22:07.504Z,38.67
2023-12-05T08:23:07.494Z,36.42
2023-12-05T08:24:07.635Z,34.00
2023-12-05T08:25:07.613Z,37.06
2023-12-05T08:26:07.757Z,34.48
2023-12-05T08:27:07.734Z,34.48
2023-12-05T08:28:07.810Z,40.77
2023-12-05T08:29:07.774Z,37.54
2023-12-05T08:30:07.898Z,49.47
2023-12-05T08:31:07.907Z,40.61
2023-12-05T08:32:07.923Z,33.35
2023-12-05T08:33:08.002Z,33.35
2023-12-05T08:34:08.165Z,41.09
2023-12-05T08:35:08.222Z,60.26
2023-12-05T08:36:08.075Z,44.15
2023-12-05T08:37:08.058Z,56.56
2023-12-05T08:38:08.086Z,38.19
2023-12-05T08:39:08.094Z,34.80
2023-12-05T08:40:08.210Z,33.19
2023-12-05T08:41:08.221Z,37.54
2023-12-05T08:42:08.290Z,40.61
2023-12-05T08:43:08.358Z,35.61
2023-12-05T08:44:08.315Z,36.58
2023-12-05T08:45:08.377Z,38.19
2023-12-05T08:46:09.904Z,48.02
2023-12-05T08:47:08.446Z,49.95
2023-12-05T08:48:08.479Z,45.60
2023-12-05T08:49:08.546Z,42.38
2023-12-05T08:50:08.532Z,33.52
2023-12-05T08:51:08.555Z,32.87
2023-12-05T08:52:08.530Z,49.15
2023-12-05T08:53:08.601Z,38.03
2023-12-05T08:54:08.610Z,39.80
2023-12-05T08:55:08.645Z,35.29
2023-12-05T08:56:08.713Z,68.48
2023-12-05T08:57:08.653Z,38.83
2023-12-05T08:58:08.761Z,47.21
2023-12-05T12:08:20.286Z,38.03
2023-12-05T12:09:21.291Z,38.99
2023-12-05T12:10:21.281Z,48.66
2023-12-05T12:11:21.413Z,63.65
2023-12-05T12:12:21.701Z,42.06
2023-12-05T12:13:21.688Z,45.76
2023-12-05T12:14:21.799Z,34.64
2023-12-05T12:15:21.810Z,46.25
2023-12-05T12:16:21.950Z,42.22
2023-12-05T12:17:22.566Z,53.17
2023-12-05T12:18:22.331Z,39.80
2023-12-05T12:19:22.256Z,39.16
2023-12-05T12:20:22.221Z,38.51
2023-12-05T12:21:22.316Z,37.71
2023-12-05T12:22:22.362Z,35.45
2023-12-05T12:23:22.549Z,40.93
2023-12-05T12:24:22.570Z,52.69
2023-12-05T12:25:22.618Z,34.16
2023-12-05T12:26:22.637Z,37.38
2023-12-05T12:27:22.826Z,36.58
2023-12-05T12:28:22.805Z,34.48
2023-12-05T12:29:22.908Z,41.41
2023-12-05T12:30:23.012Z,37.22
2023-12-05T12:31:22.996Z,35.13
2023-12-05T12:32:23.070Z,34.64
2023-12-05T12:33:23.282Z,37.22
2023-12-05T12:34:23.250Z,42.22
2023-12-05T12:35:23.327Z,34.80
2023-12-05T12:36:23.490Z,35.45
2023-12-05T12:37:23.861Z,34.32
2023-12-05T12:38:23.562Z,39.32
2023-12-05T12:39:23.718Z,37.22
2023-12-05T12:40:23.842Z,34.32
2023-12-05T12:41:23.754Z,39.16
2023-12-05T12:42:23.925Z,71.54
2023-12-05T12:43:23.922Z,57.52
2023-12-05T12:44:24.082Z,73.15
2023-12-05T12:45:24.093Z,65.74
2023-12-05T12:46:24.158Z,70.74
2023-12-05T12:47:24.201Z,63.81
2023-12-05T12:48:24.536Z,53.98
2023-12-05T12:49:24.515Z,67.84
2023-12-05T12:50:24.538Z,72.19
2023-12-05T12:51:24.607Z,64.94
2023-12-05T12:52:24.705Z,76.05
2023-12-05T12:53:24.802Z,95.39
2023-12-05T12:54:24.943Z,87.33
2023-12-05T12:55:24.935Z,65.90
2023-12-05T12:56:25.046Z,77.02
2023-12-05T12:57:25.223Z,75.09
2023-12-05T12:58:25.354Z,79.44
2023-12-05T12:59:25.425Z,77.99
2023-12-05T13:00:32.470Z,68.32
2023-12-05T13:01:25.716Z,59.46
2023-12-05T13:02:25.782Z,68.32
2023-12-05T13:03:25.937Z,49.79
2023-12-05T13:04:28.109Z,63.97
2023-12-05T13:05:26.150Z,51.56
2023-12-05T13:06:26.350Z,58.97
2023-12-05T13:07:26.461Z,73.32
2023-12-05T13:08:26.619Z,60.26
2023-12-05T13:09:26.781Z,58.17
2023-12-05T13:10:26.857Z,70.09
2023-12-05T13:11:26.967Z,57.36
2023-12-05T13:12:27.232Z,50.60
2023-12-05T13:13:27.329Z,73.80
2023-12-05T13:14:27.493Z,50.11
2023-12-05T13:15:27.666Z,60.42
2023-12-05T13:16:27.796Z,44.63
2023-12-05T13:17:27.949Z,60.10
2023-12-05T13:18:28.193Z,70.90
2023-12-05T13:19:28.469Z,53.66
2023-12-05T13:20:28.408Z,63.97
2023-12-05T13:21:28.658Z,53.50
2023-12-05T13:51:23.207Z,64.78
2023-12-05T13:52:21.689Z,59.62
2023-12-05T13:53:21.674Z,49.15
2023-12-05T13:54:21.719Z,56.72
2023-12-05T13:55:21.864Z,78.96
2023-12-05T13:56:21.898Z,83.31
2023-12-05T13:57:22.661Z,71.87
2023-12-05T13:58:22.027Z,74.93
2023-12-05T13:59:22.040Z,63.65
2023-12-05T14:00:22.153Z,50.76
2023-12-05T14:01:22.245Z,57.36
2023-12-05T14:02:22.284Z,57.85
2023-12-05T14:03:25.043Z,62.52
2023-12-05T14:04:22.496Z,78.96
2023-12-05T14:05:22.655Z,62.20
2023-12-05T14:06:22.655Z,78.31
2023-12-05T14:07:22.670Z,53.17
2023-12-05T14:08:22.624Z,84.59
2023-12-05T14:09:25.282Z,67.68
2023-12-05T14:10:22.764Z,59.30
2023-12-05T14:11:22.903Z,70.58
2023-12-05T14:12:22.969Z,64.13
2023-12-05T14:13:23.056Z,65.90
2023-12-05T14:14:23.067Z,50.43
2023-12-05T14:15:25.859Z,78.96
2023-12-05T14:16:23.240Z,60.75
2023-12-05T14:17:23.350Z,51.40
2023-12-05T14:18:23.405Z,47.05
2023-12-05T14:19:23.465Z,61.71
2023-12-05T14:20:23.428Z,75.09
2023-12-05T14:21:23.587Z,49.31
2023-12-05T14:22:23.677Z,56.07
2023-12-05T14:23:23.812Z,63.81
2023-12-05T14:24:23.749Z,49.95
2023-12-05T14:25:23.882Z,48.34
2023-12-05T14:26:23.940Z,71.22
2023-12-05T14:27:26.043Z,77.18
2023-12-05T14:28:24.109Z,55.43
2023-12-05T14:29:24.212Z,53.01
2023-12-05T14:30:24.223Z,78.47
2023-12-05T14:31:24.372Z,74.60
2023-12-05T14:32:24.383Z,47.70
2023-12-05T14:33:24.518Z,65.58
2023-12-05T14:34:24.589Z,63.33
2023-12-05T14:35:24.627Z,52.37
2023-12-05T14:36:24.714Z,73.32
2023-12-05T14:37:24.773Z,58.81
2023-12-05T14:38:24.784Z,80.41
2023-12-05T14:39:25.073Z,78.96
2023-12-05T14:40:24.998Z,61.07
2023-12-05T14:41:25.165Z,70.90
2023-12-05T14:42:25.326Z,72.03
2023-12-05T14:43:25.337Z,73.32
2023-12-05T14:44:25.348Z,48.18
2023-12-05T14:45:26.646Z,59.94
2023-12-05T14:46:25.659Z,73.15
2023-12-05T14:47:25.671Z,54.46
2023-12-05T14:48:25.793Z,68.32
2023-12-05T14:49:25.876Z,53.98
2023-12-05T14:50:25.822Z,61.71
2023-12-05T14:51:27.285Z,67.03
2023-12-05T14:52:26.120Z,62.04
2023-12-05T14:53:26.131Z,55.11
2023-12-05T14:54:26.230Z,55.75
2023-12-05T14:55:26.319Z,77.18
2023-12-05T14:56:26.405Z,59.62
2023-12-05T14:57:27.096Z,70.09
2023-12-05T14:58:26.543Z,65.58
2023-12-05T14:59:26.686Z,56.56
2023-12-05T15:00:26.731Z,55.27
2023-12-05T15:01:26.908Z,68.00
2023-12-05T15:02:26.945Z,68.96
2023-12-05T15:03:27.072Z,62.52
2023-12-05T15:04:27.151Z,55.75
2023-12-05T15:05:27.192Z,60.42
2023-12-05T15:06:27.359Z,47.21
2023-12-05T15:07:27.401Z,60.91
2023-12-05T15:08:27.437Z,57.36
2023-12-05T15:09:27.606Z,57.85
2023-12-05T15:10:27.636Z,48.02
2023-12-05T15:11:27.816Z,69.77
2023-12-05T15:12:27.912Z,64.45
2023-12-05T15:13:27.939Z,76.54
2023-12-05T15:14:27.987Z,69.13
2023-12-05T15:15:28.153Z,47.37
2023-12-05T15:16:28.198Z,66.87
2023-12-05T15:17:28.381Z,73.48
2023-12-05T15:18:28.435Z,57.69
2023-12-05T15:19:28.602Z,51.08
2023-12-05T15:20:28.717Z,46.08
2023-12-05T15:21:30.033Z,53.82
2023-12-05T15:22:28.824Z,63.97
2023-12-05T15:23:28.885Z,49.79
2023-12-05T15:24:28.966Z,73.96
2023-12-05T15:25:29.078Z,77.83
2023-12-05T15:26:29.149Z,59.46
2023-12-05T15:27:29.296Z,64.45
2023-12-05T15:28:29.491Z,76.38
2023-12-05T15:29:36.457Z,75.89
2023-12-05T15:30:29.525Z,77.99
2023-12-05T15:31:29.663Z,77.18
2023-12-05T15:32:29.742Z,68.80
2023-12-05T15:33:29.934Z,68.48
2023-12-05T15:34:30.004Z,60.42
2023-12-05T15:35:30.047Z,68.80
2023-12-05T15:36:30.210Z,61.55
2023-12-05T15:37:30.278Z,61.55
2023-12-05T15:38:30.574Z,78.79
2023-12-05T15:39:30.423Z,74.93
2023-12-05T15:40:30.466Z,66.39
2023-12-05T15:41:30.620Z,77.83
2023-12-05T15:42:30.778Z,49.47
2023-12-05T15:43:30.847Z,72.35
2023-12-05T15:44:31.180Z,78.79
2023-12-05T15:45:31.017Z,60.59
2023-12-05T15:46:31.112Z,64.61
2023-12-05T15:47:31.292Z,72.83
2023-12-05T15:48:43.807Z,50.27
2023-12-05T15:49:31.469Z,76.54
2023-12-05T15:50:31.635Z,63.81
2023-12-05T15:51:31.708Z,48.34
2023-12-05T15:52:31.803Z,77.99
2023-12-05T15:53:31.771Z,78.63
2023-12-05T15:54:31.969Z,59.46
2023-12-05T15:55:31.976Z,62.04
2023-12-05T15:56:32.181Z,63.97
2023-12-05T15:57:32.264Z,53.33
2023-12-05T15:58:32.258Z,39.80
2023-12-05T15:59:32.449Z,34.97
2023-12-05T16:00:32.596Z,73.80
2023-12-05T16:01:32.849Z,40.12
2023-12-05T16:02:32.778Z,37.87
2023-12-05T16:03:32.982Z,40.28
2023-12-05T16:04:32.860Z,43.51
2023-12-05T16:05:33.159Z,40.28
2023-12-05T16:06:33.230Z,37.06
2023-12-05T16:07:33.246Z,39.96
2023-12-05T16:08:33.253Z,34.80
2023-12-05T16:09:33.630Z,36.74
2023-12-05T16:10:33.427Z,33.35
2023-12-05T16:11:33.599Z,34.00
2023-12-05T16:12:33.671Z,42.06
2023-12-05T16:13:33.722Z,42.06
2023-12-05T16:14:33.753Z,42.70
2023-12-05T16:15:33.833Z,49.15
2023-12-05T16:16:33.923Z,36.25
2023-12-05T16:17:34.039Z,41.89
2023-12-05T16:18:34.020Z,33.35
2023-12-05T16:19:34.062Z,32.87
2023-12-05T16:20:34.040Z,33.84
2023-12-05T16:21:34.263Z,33.84
2023-12-05T16:22:34.159Z,35.77
2023-12-05T16:23:34.217Z,32.39
2023-12-05T16:24:34.247Z,31.90
2023-12-05T16:25:34.301Z,33.52
2023-12-05T16:26:34.375Z,37.87
2023-12-05T16:27:34.403Z,31.74
2023-12-05T16:28:35.847Z,32.87
2023-12-05T16:29:34.381Z,44.15
2023-12-05T16:30:34.496Z,36.42
2023-12-05T16:31:34.469Z,34.00
2023-12-05T16:32:34.557Z,42.38
2023-12-05T16:33:34.547Z,39.64
2023-12-05T16:34:34.645Z,35.77
2023-12-05T16:35:34.540Z,32.87
2023-12-05T16:36:34.599Z,32.23
2023-12-05T16:37:34.640Z,32.23
2023-12-05T16:38:34.628Z,32.39
2023-12-05T16:39:34.665Z,32.55
2023-12-05T16:40:34.602Z,33.68
2023-12-05T16:41:34.692Z,39.48
2023-12-05T16:42:34.709Z,34.16
2023-12-05T16:43:34.699Z,45.92
2023-12-05T16:44:34.687Z,34.32
2023-12-05T16:45:34.795Z,46.73
2023-12-05T16:46:34.768Z,43.34
2023-12-05T16:47:34.813Z,51.24
2023-12-05T16:48:34.807Z,51.72
2023-12-05T16:49:34.839Z,40.93
2023-12-05T16:50:34.780Z,33.35
2023-12-05T16:51:34.779Z,76.05
2023-12-05T16:52:34.870Z,32.39
2023-12-05T16:53:34.770Z,59.46
2023-12-05T16:54:34.893Z,43.02
2023-12-05T16:55:34.761Z,32.71
2023-12-05T16:56:34.785Z,33.19
2023-12-05T16:57:34.830Z,36.74
2023-12-05T16:58:34.814Z,33.03
2023-12-05T16:59:35.612Z,35.77
2023-12-05T17:00:34.904Z,33.19
2023-12-05T17:01:34.916Z,41.09
2023-12-05T17:02:34.804Z,34.32
2023-12-05T17:03:34.849Z,43.99
2023-12-05T17:04:34.849Z,35.93
2023-12-05T17:05:34.696Z,41.25
2023-12-05T17:06:34.785Z,49.31
2023-12-05T17:07:34.700Z,34.64
2023-12-05T17:08:34.721Z,45.28
2023-12-05T17:09:34.729Z,43.83
2023-12-05T17:10:34.702Z,39.16
2023-12-05T17:11:34.611Z,43.99
2023-12-05T17:12:34.670Z,33.84
2023-12-05T17:13:34.582Z,34.48
2023-12-05T17:14:34.603Z,32.39
2023-12-05T17:15:36.278Z,33.84
2023-12-05T17:16:34.625Z,33.35
2023-12-05T17:17:34.690Z,38.83
2023-12-05T17:18:34.620Z,42.06
2023-12-05T17:19:34.622Z,32.87
2023-12-05T17:20:34.523Z,32.71
2023-12-05T17:21:34.558Z,32.55
2023-12-05T17:22:34.519Z,32.55
2023-12-05T17:23:34.427Z,34.48
2023-12-05T17:24:34.426Z,36.90
2023-12-05T17:25:34.366Z,43.83
2023-12-05T17:26:34.373Z,42.54
2023-12-05T17:27:34.364Z,34.80
2023-12-05T17:28:34.403Z,33.68
2023-12-05T17:29:34.300Z,39.48
2023-12-05T17:30:35.311Z,32.55
2023-12-05T17:31:34.229Z,33.03
2023-12-05T17:32:34.277Z,34.80
2023-12-05T17:33:34.323Z,42.70
2023-12-05T17:34:34.384Z,42.06
2023-12-05T17:35:34.136Z,32.39
2023-12-05T17:36:34.227Z,32.87
2023-12-05T17:37:34.139Z,40.61
2023-12-05T17:38:34.134Z,34.97
2023-12-05T17:39:34.144Z,32.55
2023-12-05T17:40:34.142Z,32.23
2023-12-05T17:41:34.077Z,32.39
2023-12-05T17:42:34.149Z,32.55
2023-12-05T17:43:34.043Z,38.03
2023-12-05T17:44:34.035Z,32.07
2023-12-05T17:45:34.056Z,39.48
2023-12-05T17:46:34.041Z,32.55
2023-12-05T17:47:33.907Z,33.35
2023-12-05T17:48:33.985Z,33.03
2023-12-05T17:49:34.041Z,36.25
2023-12-05T17:50:33.818Z,34.64
2023-12-05T17:51:33.927Z,35.77
2023-12-05T17:52:33.821Z,41.89
2023-12-05T17:53:33.814Z,32.23
2023-12-05T17:54:33.804Z,41.25
2023-12-05T17:55:33.747Z,34.48
2023-12-05T17:56:33.655Z,56.24
2023-12-05T17:57:33.762Z,34.97
2023-12-05T17:58:33.652Z,47.70
2023-12-05T17:59:35.296Z,33.03
2023-12-05T18:00:33.571Z,32.55
2023-12-05T18:01:34.190Z,54.30
2023-12-05T18:02:36.282Z,52.37
2023-12-05T18:03:33.654Z,34.16
2023-12-05T18:04:34.199Z,43.18
2023-12-05T18:05:33.420Z,41.57
2023-12-05T18:06:33.351Z,53.66
2023-12-05T18:07:53.485Z,48.82
2023-12-05T18:08:33.302Z,56.07
2023-12-05T18:09:33.581Z,44.96
2023-12-05T18:10:33.255Z,34.97
2023-12-05T18:11:33.209Z,33.84
2023-12-05T18:12:33.439Z,38.19
2023-12-05T18:13:33.184Z,35.13
2023-12-05T18:14:33.159Z,38.67
2023-12-05T18:15:33.560Z,49.95
2023-12-05T18:16:33.039Z,71.70
2023-12-05T18:17:33.531Z,49.63
2023-12-05T18:18:33.576Z,46.41
2023-12-05T18:19:33.037Z,35.93
2023-12-05T18:20:32.942Z,32.55
2023-12-05T18:21:32.918Z,33.84
2023-12-05T18:22:33.099Z,32.23
2023-12-05T18:23:32.818Z,33.19
2023-12-05T18:24:33.541Z,54.46
2023-12-05T18:25:33.488Z,32.55
2023-12-05T18:26:32.766Z,39.80
2023-12-05T18:27:32.809Z,40.44
2023-12-05T18:28:33.104Z,35.13
2023-12-05T18:29:33.513Z,43.99
2023-12-05T18:30:32.658Z,33.52
2023-12-05T18:31:33.504Z,43.51
2023-12-05T18:32:33.564Z,35.13
2023-12-05T18:33:32.670Z,34.16
2023-12-05T18:34:32.630Z,34.32
2023-12-05T18:35:33.004Z,66.55
2023-12-05T18:36:32.549Z,41.25
2023-12-05T18:37:32.382Z,32.07
2023-12-05T18:38:32.382Z,64.29
2023-12-05T18:39:32.373Z,32.07
2023-12-05T18:40:32.378Z,37.38
2023-12-05T18:41:32.277Z,34.97
2023-12-05T18:42:32.323Z,31.90
2023-12-05T18:43:34.063Z,31.90
2023-12-05T18:44:33.026Z,32.55
2023-12-05T18:45:32.201Z,38.35
2023-12-05T18:46:32.535Z,31.90
2023-12-05T18:47:32.148Z,50.27
2023-12-05T18:48:32.138Z,46.57
2023-12-05T18:49:32.179Z,36.74
2023-12-05T18:50:32.030Z,42.06
2023-12-05T18:51:32.113Z,58.17
2023-12-05T18:52:32.098Z,52.37
2023-12-05T18:53:32.544Z,68.96
2023-12-05T18:54:32.034Z,39.96
2023-12-05T18:55:32.564Z,37.87
2023-12-05T18:56:32.520Z,72.83
2023-12-05T18:57:32.177Z,67.35
2023-12-05T18:58:31.864Z,56.07
2023-12-05T18:59:31.794Z,46.08
2023-12-05T19:00:31.787Z,41.73
2023-12-05T19:01:31.803Z,53.17
2023-12-05T19:02:31.780Z,62.84
2023-12-05T19:03:31.728Z,47.05
2023-12-05T19:04:31.645Z,72.35
2023-12-05T19:05:31.688Z,43.83
2023-12-05T19:06:33.436Z,34.80
2023-12-05T19:07:31.516Z,64.29
2023-12-05T19:08:31.523Z,31.74
2023-12-05T19:09:31.520Z,49.95
2023-12-05T19:10:31.443Z,35.61
2023-12-05T19:11:31.426Z,36.42
2023-12-05T19:12:31.388Z,58.17
2023-12-05T19:13:31.345Z,32.39
2023-12-05T19:14:31.280Z,48.34
2023-12-05T19:15:31.376Z,43.18
2023-12-05T19:16:32.371Z,42.06
2023-12-05T19:17:31.256Z,45.76
2023-12-05T19:18:31.321Z,38.19
2023-12-05T19:19:31.275Z,51.72
2023-12-05T19:20:31.115Z,51.24
2023-12-05T19:21:31.187Z,36.25
2023-12-05T19:22:31.100Z,47.86
2023-12-05T19:23:31.560Z,47.05
2023-12-05T19:24:31.042Z,36.90
2023-12-05T19:25:30.943Z,54.79
2023-12-05T19:26:30.968Z,35.13
2023-12-05T19:27:30.985Z,49.63
2023-12-05T19:28:34.125Z,32.07
2023-12-05T19:29:30.840Z,64.94
2023-12-05T19:30:30.940Z,73.64
2023-12-05T19:31:30.907Z,55.59
2023-12-05T19:32:30.689Z,43.02
2023-12-05T19:33:30.752Z,48.66
2023-12-05T19:34:40.218Z,56.56
2023-12-05T19:35:30.706Z,50.60
2023-12-05T19:36:30.616Z,52.53
2023-12-05T19:37:30.596Z,45.60
2023-12-05T19:38:30.529Z,44.15
2023-12-05T19:39:30.533Z,48.18
2023-12-05T19:40:30.605Z,50.11
2023-12-05T19:41:30.459Z,34.64
2023-12-05T19:42:30.399Z,54.30
2023-12-05T19:43:30.368Z,55.27
2023-12-05T19:44:30.347Z,48.02
2023-12-05T19:45:30.680Z,48.34
2023-12-05T19:46:30.278Z,57.85
2023-12-05T19:47:31.166Z,47.21
2023-12-05T19:48:30.299Z,57.04
2023-12-05T19:49:30.292Z,61.39
2023-12-05T19:50:30.601Z,53.50
2023-12-05T19:51:30.184Z,52.53
2023-12-05T19:52:30.199Z,42.22
2023-12-05T19:53:29.966Z,55.27
2023-12-05T19:54:29.916Z,56.56
2023-12-05T19:55:29.933Z,52.37
2023-12-05T19:56:29.835Z,61.71
2023-12-05T19:57:29.890Z,46.08
2023-12-05T19:58:29.803Z,65.26
2023-12-05T19:59:31.354Z,85.40
2023-12-05T20:00:29.781Z,87.17
2023-12-05T20:01:29.722Z,52.37
2023-12-05T20:02:29.682Z,38.03
2023-12-05T20:03:29.750Z,49.47
2023-12-05T20:04:29.719Z,51.08
2023-12-05T20:05:29.571Z,47.05
2023-12-05T20:06:29.498Z,42.70
2023-12-05T20:07:29.487Z,42.54
2023-12-05T20:08:29.434Z,49.31
2023-12-05T20:09:29.567Z,38.67
2023-12-05T20:10:29.509Z,33.03
2023-12-05T20:11:29.320Z,32.55
2023-12-05T20:12:29.344Z,31.58
2023-12-05T20:13:29.243Z,32.55
2023-12-05T20:14:29.163Z,32.55
2023-12-05T20:15:29.224Z,41.41
2023-12-05T20:16:29.118Z,31.90
2023-12-05T20:17:29.726Z,31.74
2023-12-05T20:18:29.165Z,34.32
2023-12-05T20:19:29.056Z,31.90
2023-12-05T20:20:29.006Z,31.90
2023-12-05T20:21:29.033Z,33.35
2023-12-05T20:22:28.937Z,31.58
2023-12-05T20:23:28.839Z,32.07
2023-12-05T20:24:28.885Z,31.90
2023-12-05T20:25:28.766Z,45.60
2023-12-05T20:26:28.758Z,32.23
2023-12-05T20:27:28.761Z,31.90
2023-12-05T20:28:28.713Z,32.07
2023-12-05T20:29:28.622Z,31.90
2023-12-05T20:30:28.682Z,33.35
2023-12-05T20:31:28.523Z,31.58
2023-12-05T20:32:28.532Z,31.58
2023-12-05T20:33:28.610Z,32.71
2023-12-05T20:34:28.616Z,41.57
2023-12-05T20:35:28.389Z,31.74
2023-12-05T20:36:28.346Z,31.74
2023-12-05T20:37:28.306Z,32.07
2023-12-05T20:38:28.294Z,32.71
2023-12-05T20:39:28.287Z,31.58
2023-12-05T20:40:28.234Z,31.90
2023-12-05T20:41:28.122Z,32.39
2023-12-05T20:42:28.394Z,31.74
2023-12-05T20:43:28.038Z,35.45
2023-12-05T20:44:28.057Z,32.23
2023-12-05T20:45:28.002Z,33.68
2023-12-05T20:46:27.994Z,36.42
2023-12-05T20:47:27.962Z,32.39
2023-12-05T20:48:27.981Z,45.92
2023-12-05T20:49:28.040Z,31.90
2023-12-05T20:50:27.848Z,37.71
2023-12-05T20:51:27.897Z,32.39
2023-12-05T20:52:27.842Z,33.68
2023-12-05T20:53:27.766Z,33.19
2023-12-05T20:54:27.705Z,32.39
2023-12-05T20:55:27.724Z,45.92
2023-12-05T20:56:27.646Z,34.48
2023-12-05T20:57:27.715Z,46.57
2023-12-05T20:58:27.599Z,61.07
2023-12-05T20:59:27.579Z,65.74
2023-12-05T21:00:27.589Z,45.12
2023-12-05T21:01:27.533Z,36.58
2023-12-05T21:02:27.434Z,32.39
2023-12-05T21:03:27.488Z,34.00
2023-12-05T21:04:27.461Z,32.87
2023-12-05T21:05:27.317Z,38.35
2023-12-05T21:06:27.239Z,48.34
2023-12-05T21:07:29.521Z,52.37
2023-12-05T21:09:08.677Z,64.61
2023-12-05T21:09:27.184Z,45.12
2023-12-05T21:10:27.120Z,40.44
2023-12-05T21:11:27.091Z,31.74
2023-12-05T21:12:27.000Z,41.57
2023-12-05T21:13:27.006Z,31.58
2023-12-05T21:14:26.921Z,31.90
2023-12-05T21:15:26.940Z,32.07
2023-12-05T21:16:26.921Z,50.27
2023-12-05T21:17:27.003Z,38.03
2023-12-05T21:18:26.965Z,52.37
2023-12-05T21:19:26.853Z,54.95
2023-12-05T21:20:26.785Z,69.77
2023-12-05T21:21:26.744Z,56.72
2023-12-05T21:22:26.758Z,51.24
2023-12-05T21:23:26.666Z,48.34
2023-12-05T21:24:26.602Z,53.33
2023-12-05T21:25:26.781Z,51.88
2023-12-05T21:26:26.533Z,49.63
2023-12-05T21:27:26.535Z,50.43
2023-12-05T21:28:26.511Z,60.59
2023-12-05T21:29:27.053Z,57.85
2023-12-05T21:30:27.928Z,66.71
2023-12-05T21:31:26.362Z,60.42
2023-12-05T21:32:26.281Z,36.09
2023-12-05T21:33:26.318Z,46.57
2023-12-05T21:34:26.328Z,53.66
2023-12-05T21:35:26.202Z,55.75
2023-12-05T21:36:26.119Z,61.71
2023-12-05T21:37:26.231Z,52.69
2023-12-05T21:38:26.040Z,59.14
2023-12-05T21:39:26.075Z,47.21
2023-12-05T21:40:25.999Z,33.84
2023-12-05T21:41:25.985Z,43.83
2023-12-05T21:42:26.629Z,54.30
2023-12-05T21:43:26.599Z,58.65
2023-12-05T21:44:26.276Z,49.63
2023-12-05T21:45:25.910Z,36.58
2023-12-05T21:46:25.882Z,38.19
2023-12-05T21:47:25.813Z,54.62
2023-12-05T21:48:25.966Z,38.03
2023-12-05T21:49:25.787Z,36.90
2023-12-05T21:50:27.262Z,62.68
2023-12-05T21:51:26.995Z,37.38
2023-12-05T21:52:25.738Z,45.92
2023-12-05T21:53:25.666Z,59.46
2023-12-05T21:54:28.344Z,62.52
2023-12-05T21:55:25.681Z,54.62
2023-12-05T21:56:25.586Z,69.93
2023-12-05T21:57:25.659Z,54.62
2023-12-05T21:58:25.572Z,59.46
2023-12-05T21:59:25.512Z,54.62
2023-12-05T22:00:25.919Z,49.47
2023-12-05T22:01:25.612Z,48.98
2023-12-05T22:02:25.416Z,32.39
2023-12-05T22:03:25.424Z,57.52
2023-12-05T22:04:25.511Z,54.79
2023-12-05T22:05:27.006Z,32.87
2023-12-05T22:06:26.109Z,52.69
2023-12-05T22:07:26.355Z,35.93
2023-12-05T22:08:26.858Z,50.92
2023-12-05T22:09:25.220Z,48.18
2023-12-05T22:10:25.217Z,52.53
2023-12-05T22:11:25.961Z,58.01
2023-12-05T22:12:28.440Z,42.38
2023-12-05T22:13:25.101Z,45.12
2023-12-05T22:14:25.036Z,32.87
2023-12-05T22:15:25.062Z,49.47
2023-12-05T22:16:25.019Z,63.97
2023-12-05T22:17:24.930Z,32.55
2023-12-05T22:18:24.947Z,58.97
2023-12-05T22:19:24.965Z,34.16
2023-12-05T22:20:24.810Z,33.19
2023-12-05T22:21:26.048Z,61.23
2023-12-05T22:22:24.797Z,32.39
2023-12-05T22:23:25.749Z,47.21
2023-12-05T22:24:29.946Z,50.60
2023-12-05T22:25:24.722Z,49.95
2023-12-05T22:26:24.659Z,33.19
2023-12-05T22:27:24.698Z,48.34
2023-12-05T22:28:24.628Z,51.88
2023-12-05T22:29:25.023Z,36.09
2023-12-05T22:30:24.642Z,55.91
2023-12-05T22:31:24.750Z,63.97
2023-12-05T22:32:24.532Z,44.31
2023-12-05T22:33:24.718Z,53.33
2023-12-05T22:34:24.576Z,47.05
2023-12-05T22:35:24.428Z,47.86
2023-12-05T22:36:25.112Z,55.75
2023-12-05T22:37:25.931Z,43.34
2023-12-05T22:38:25.173Z,49.31
2023-12-05T22:39:24.324Z,46.73
2023-12-05T22:40:24.355Z,57.04
2023-12-05T22:41:24.213Z,32.55
2023-12-05T22:42:24.206Z,34.32
2023-12-05T22:43:24.136Z,51.24
2023-12-05T22:44:24.151Z,45.92
2023-12-05T22:45:24.091Z,31.74
2023-12-05T22:46:24.133Z,41.89
2023-12-05T22:47:23.997Z,32.71
2023-12-05T22:48:24.022Z,34.00
2023-12-05T22:49:23.994Z,36.25
2023-12-05T22:50:23.919Z,31.90
2023-12-05T22:51:23.945Z,31.90
2023-12-05T22:52:23.972Z,31.90
2023-12-05T22:53:23.812Z,32.07
2023-12-05T22:54:23.849Z,31.90
2023-12-05T22:55:23.775Z,31.74
2023-12-05T22:56:23.743Z,31.58
2023-12-05T22:57:23.990Z,31.90
2023-12-05T22:58:23.745Z,31.90
2023-12-05T22:59:23.645Z,31.58
2023-12-05T23:00:23.586Z,31.58
2023-12-05T23:01:23.589Z,31.90
2023-12-05T23:02:23.556Z,31.90
2023-12-05T23:03:23.576Z,31.90
2023-12-05T23:04:23.499Z,31.58
2023-12-05T23:05:23.449Z,32.23
2023-12-05T23:06:23.427Z,32.07
2023-12-05T23:07:23.321Z,31.90
2023-12-05T23:08:23.327Z,31.58
2023-12-05T23:09:23.320Z,32.07
2023-12-05T23:10:23.314Z,31.42
2023-12-05T23:11:23.180Z,31.58
2023-12-05T23:12:23.174Z,32.23
2023-12-05T23:13:23.101Z,31.90
2023-12-05T23:14:23.116Z,32.39
2023-12-05T23:15:23.077Z,32.39
2023-12-05T23:16:23.091Z,31.90
2023-12-05T23:17:23.308Z,31.74
2023-12-05T23:18:22.995Z,32.23
2023-12-05T23:19:23.010Z,33.35
2023-12-05T23:20:22.919Z,32.07
2023-12-05T23:21:22.893Z,31.90
2023-12-05T23:22:22.853Z,31.90
2023-12-05T23:23:22.760Z,32.07
2023-12-05T23:24:22.774Z,32.71
2023-12-05T23:25:22.708Z,32.23
2023-12-05T23:26:22.692Z,33.68
2023-12-05T23:27:22.880Z,32.71
2023-12-05T23:28:25.712Z,38.03
2023-12-05T23:29:22.572Z,50.27
2023-12-05T23:30:22.545Z,58.33
2023-12-05T23:31:22.601Z,37.71
2023-12-05T23:32:22.584Z,31.74
2023-12-05T23:33:22.619Z,32.07
2023-12-05T23:34:22.583Z,34.32
2023-12-05T23:35:22.453Z,32.39
2023-12-05T23:36:22.355Z,39.64
2023-12-05T23:37:22.886Z,31.74
2023-12-05T23:38:22.336Z,32.23
2023-12-05T23:39:22.348Z,31.90
2023-12-05T23:40:22.275Z,32.55
2023-12-05T23:41:22.267Z,31.74
2023-12-05T23:42:22.204Z,34.48
2023-12-05T23:43:22.204Z,31.74
2023-12-05T23:44:22.117Z,31.90
2023-12-05T23:45:22.192Z,32.23
2023-12-05T23:46:22.069Z,32.07
2023-12-05T23:47:24.651Z,32.07
2023-12-05T23:48:22.010Z,31.90
2023-12-05T23:49:22.004Z,33.68
2023-12-05T23:50:21.873Z,31.58
2023-12-05T23:51:21.970Z,31.74
2023-12-05T23:52:21.836Z,32.07
2023-12-05T23:53:21.811Z,34.48
2023-12-05T23:54:21.736Z,31.74
2023-12-05T23:55:21.716Z,31.90
2023-12-05T23:56:21.675Z,31.90
2023-12-05T23:57:21.991Z,31.74
2023-12-05T23:58:21.638Z,31.42
2023-12-05T23:59:21.596Z,31.58
